Terminal Aerodrome Forecast
Issued by NWS

Home | Current Version | Previous Version | Text Only | Print | Product List | Glossary On
Versions: 1 2 3 4 5 6 7 8 9 10 11 12 13 14 15 16 17 18 19
000
FTUS42 KJAX 251038 AAB
TAFCRG
TAF AMD
KCRG 251038Z 2511/2606 00000KT P6SM SCT250
      TEMPO 2511/2513 3SM BR
     FM251300 35005KT P6SM SCT030
     FM251700 06010KT P6SM VCTS BKN040CB
     FM252200 07007KT P6SM VCSH SCT050=

USA.gov is the U.S. government's official web portal to all federal, state and local government web resources and services.